createdAt,value
2019-03-03T00:01:12.837Z,3.30
2019-03-03T00:03:46.336Z,3.40
2019-03-03T00:06:19.799Z,3.40
2019-03-03T00:08:53.564Z,3.30
2019-03-03T00:11:26.986Z,3.40
2019-03-03T00:14:02.087Z,3.40
2019-03-03T00:16:35.555Z,3.40
2019-03-03T00:19:08.987Z,3.40
2019-03-03T00:21:42.460Z,3.40
2019-03-03T00:24:15.888Z,3.50
2019-03-03T00:26:49.455Z,3.50
2019-03-03T00:29:22.853Z,3.50
2019-03-03T00:31:56.319Z,3.50
2019-03-03T00:34:29.751Z,3.50
2019-03-03T00:37:13.521Z,3.50
2019-03-03T00:39:54.349Z,3.50
2019-03-03T00:42:29.455Z,3.50
2019-03-03T00:45:04.789Z,3.50
2019-03-03T00:47:55.993Z,3.40
2019-03-03T00:50:47.417Z,3.30
2019-03-03T00:53:28.350Z,3.30
2019-03-03T00:56:19.470Z,3.20
2019-03-03T00:59:12.388Z,3.20
2019-03-03T01:01:56.252Z,3.20
2019-03-03T01:04:47.257Z,3.20
2019-03-03T01:07:38.562Z,3.20
2019-03-03T01:10:13.634Z,3.10
2019-03-03T01:12:57.408Z,3.20
2019-03-03T01:15:38.501Z,3.10
2019-03-03T01:18:16.555Z,3.10
2019-03-03T01:21:06.926Z,3.10
2019-03-03T01:23:42.020Z,3.20
2019-03-03T01:26:15.487Z,3.20
2019-03-03T01:28:48.944Z,3.20
2019-03-03T01:31:22.365Z,3.20
2019-03-03T01:33:55.981Z,3.20
2019-03-03T01:36:30.564Z,3.20
2019-03-03T01:39:04.600Z,3.30
2019-03-03T01:41:38.083Z,3.30
2019-03-03T01:44:11.577Z,3.30
2019-03-03T01:46:45.042Z,3.30
2019-03-03T01:49:18.468Z,3.30
2019-03-03T01:51:51.924Z,3.30
2019-03-03T01:54:25.365Z,3.30
2019-03-03T01:56:58.798Z,3.30
2019-03-03T01:59:32.225Z,3.30
2019-03-03T02:02:05.679Z,3.30
2019-03-03T02:04:39.108Z,3.40
2019-03-03T02:07:12.761Z,3.40
2019-03-03T02:09:46.204Z,3.40
2019-03-03T02:12:19.669Z,3.40
2019-03-03T02:14:53.128Z,3.50
2019-03-03T02:17:26.556Z,3.50
2019-03-03T02:20:00.032Z,3.50
2019-03-03T02:22:33.494Z,3.50
2019-03-03T02:25:09.844Z,3.50
2019-03-03T02:27:43.309Z,3.60
2019-03-03T02:30:19.394Z,3.60
2019-03-03T02:32:52.888Z,3.70
2019-03-03T02:35:26.345Z,3.70
2019-03-03T02:37:59.771Z,3.70
2019-03-03T02:40:33.229Z,3.70
2019-03-03T02:43:06.653Z,3.80
2019-03-03T02:45:40.131Z,3.80
2019-03-03T02:48:13.556Z,3.80
2019-03-03T02:50:47.027Z,3.80
2019-03-03T02:53:20.499Z,3.80
2019-03-03T02:55:53.918Z,3.90
2019-03-03T02:58:27.390Z,3.90
2019-03-03T03:01:02.462Z,3.90
2019-03-03T03:03:35.904Z,3.90
2019-03-03T03:06:17.061Z,3.90
2019-03-03T03:09:08.082Z,3.90
2019-03-03T03:12:01.253Z,4.00
2019-03-03T03:14:44.834Z,4.00
2019-03-03T03:17:25.781Z,4.00
2019-03-03T03:20:06.916Z,4.00
2019-03-03T03:22:42.026Z,4.00
2019-03-03T03:25:17.103Z,4.00
2019-03-03T03:27:52.170Z,4.00
2019-03-03T03:30:33.013Z,4.00
2019-03-03T03:33:13.979Z,4.00
2019-03-03T03:35:49.069Z,4.00
2019-03-03T03:38:41.857Z,4.00
2019-03-03T03:41:32.886Z,4.00
2019-03-03T03:44:07.952Z,4.00
2019-03-03T03:46:45.770Z,4.00
2019-03-03T03:49:26.933Z,4.00
2019-03-03T03:52:04.797Z,4.00
2019-03-03T03:54:39.856Z,4.00
2019-03-03T03:57:20.919Z,4.00
2019-03-03T04:00:13.895Z,4.00
2019-03-03T04:03:05.189Z,4.00
2019-03-03T04:05:52.124Z,4.00
2019-03-03T04:08:27.206Z,4.00
2019-03-03T04:11:14.154Z,4.10
2019-03-03T04:13:49.213Z,4.10
2019-03-03T04:16:26.975Z,4.10
2019-03-03T04:19:02.046Z,4.10
2019-03-03T04:21:53.113Z,4.10
2019-03-03T04:24:30.920Z,4.10
2019-03-03T04:27:06.023Z,4.20
2019-03-03T04:29:59.004Z,4.20
2019-03-03T04:32:49.824Z,4.20
2019-03-03T04:35:24.884Z,4.20
2019-03-03T04:37:59.967Z,4.30
2019-03-03T04:40:35.039Z,4.30
2019-03-03T04:43:15.836Z,4.30
2019-03-03T04:45:52.427Z,4.30
2019-03-03T04:48:36.011Z,4.40
2019-03-03T04:51:11.076Z,4.40
2019-03-03T04:53:51.944Z,4.50
2019-03-03T04:56:27.039Z,4.50
2019-03-03T04:59:02.108Z,4.60
2019-03-03T05:01:37.218Z,4.60
2019-03-03T05:04:15.053Z,4.60
2019-03-03T05:06:50.190Z,4.70
2019-03-03T05:09:31.206Z,4.70
2019-03-03T05:12:25.252Z,4.70
2019-03-03T05:15:03.101Z,4.70
2019-03-03T05:17:40.813Z,4.80
2019-03-03T05:20:15.921Z,4.80
2019-03-03T05:22:49.375Z,4.90
2019-03-03T05:25:23.068Z,4.90
2019-03-03T05:27:56.552Z,4.90
2019-03-03T05:30:29.991Z,4.90
2019-03-03T05:33:03.423Z,4.90
2019-03-03T05:35:36.873Z,5.00
2019-03-03T05:38:10.316Z,5.00
2019-03-03T05:40:43.782Z,5.00
2019-03-03T05:43:17.203Z,5.10
2019-03-03T05:45:50.657Z,5.10
2019-03-03T05:48:24.077Z,5.10
2019-03-03T05:50:57.552Z,5.20
2019-03-03T05:53:30.986Z,5.20
2019-03-03T05:56:04.437Z,5.30
2019-03-03T05:58:37.895Z,5.30
2019-03-03T06:01:11.391Z,5.40
2019-03-03T06:03:44.800Z,5.40
2019-03-03T06:06:18.262Z,5.40
2019-03-03T06:08:54.639Z,5.40
2019-03-03T06:11:28.069Z,5.40
2019-03-03T06:14:01.537Z,5.40
2019-03-03T06:16:34.959Z,5.50
2019-03-03T06:19:08.420Z,5.50
2019-03-03T06:21:41.884Z,5.50
2019-03-03T06:24:15.351Z,5.50
2019-03-03T06:26:48.795Z,5.50
2019-03-03T06:29:22.262Z,5.50
2019-03-03T06:31:55.711Z,5.60
2019-03-03T06:34:29.204Z,5.60
2019-03-03T06:37:02.650Z,5.60
2019-03-03T06:39:36.228Z,5.60
2019-03-03T06:42:09.675Z,5.70
2019-03-03T06:44:43.129Z,5.70
2019-03-03T06:47:16.669Z,5.70
2019-03-03T06:49:50.209Z,5.70
2019-03-03T06:52:23.698Z,5.80
2019-03-03T06:54:57.236Z,5.80
2019-03-03T06:57:30.718Z,5.90
2019-03-03T07:00:10.192Z,5.90
2019-03-03T07:02:43.804Z,6.00
2019-03-03T07:05:17.416Z,6.00
2019-03-03T07:07:50.810Z,6.10
2019-03-03T07:10:24.382Z,6.20
2019-03-03T07:12:57.854Z,6.30
2019-03-03T07:15:31.301Z,6.30
2019-03-03T07:18:04.765Z,6.40
2019-03-03T07:20:38.238Z,6.50
2019-03-03T07:23:11.798Z,6.60
2019-03-03T07:25:45.229Z,6.70
2019-03-03T07:28:18.712Z,6.80
2019-03-03T07:30:53.942Z,6.90
2019-03-03T07:33:31.610Z,7.00
2019-03-03T07:36:05.091Z,7.10
2019-03-03T07:38:38.527Z,7.10
2019-03-03T07:41:12.005Z,7.20
2019-03-03T07:43:45.429Z,7.20
2019-03-03T07:46:18.866Z,7.30
2019-03-03T07:48:52.285Z,7.30
2019-03-03T07:51:25.745Z,7.40
2019-03-03T07:53:59.187Z,7.40
2019-03-03T07:56:32.651Z,7.50
2019-03-03T07:59:06.101Z,7.50
2019-03-03T08:01:39.555Z,7.60
2019-03-03T08:04:12.988Z,7.70
2019-03-03T08:06:46.443Z,7.90
2019-03-03T08:09:19.864Z,8.00
2019-03-03T08:11:54.527Z,8.20
2019-03-03T08:14:27.956Z,8.40
2019-03-03T08:17:03.056Z,8.70
2019-03-03T08:19:36.479Z,8.90
2019-03-03T08:22:09.959Z,9.10
2019-03-03T08:24:43.377Z,9.30
2019-03-03T08:27:16.863Z,9.40
2019-03-03T08:29:50.294Z,9.60
2019-03-03T08:32:26.262Z,9.90
2019-03-03T08:34:59.708Z,10.20
2019-03-03T08:37:33.189Z,10.60
2019-03-03T08:40:14.213Z,10.80
2019-03-03T08:42:49.421Z,11.10
2019-03-03T08:45:24.554Z,11.30
2019-03-03T08:48:02.580Z,11.40
2019-03-03T08:50:43.684Z,11.50
2019-03-03T08:53:18.773Z,11.60
2019-03-03T08:56:08.969Z,11.80
2019-03-03T08:58:49.987Z,11.90
2019-03-03T09:01:34.062Z,12.00
2019-03-03T09:04:09.184Z,12.10
2019-03-03T09:06:44.244Z,12.20
2019-03-03T09:09:19.363Z,12.20
2019-03-03T09:11:54.416Z,12.20
2019-03-03T09:14:41.570Z,12.30
2019-03-03T09:17:19.715Z,12.30
2019-03-03T09:20:10.879Z,12.30
2019-03-03T09:22:48.958Z,12.30
2019-03-03T09:25:29.805Z,12.30
2019-03-03T09:28:06.844Z,12.20
2019-03-03T09:30:57.904Z,12.20
2019-03-03T09:33:42.321Z,12.10
2019-03-03T09:36:33.863Z,12.10
2019-03-03T09:39:26.889Z,12.10
2019-03-03T09:42:02.072Z,12.00
2019-03-03T09:44:42.856Z,12.00
2019-03-03T09:47:20.649Z,11.90
2019-03-03T09:50:11.689Z,11.90
2019-03-03T09:52:49.817Z,11.90
2019-03-03T09:55:24.911Z,12.00
2019-03-03T09:58:00.013Z,12.00
2019-03-03T10:00:51.092Z,12.00
2019-03-03T10:03:26.226Z,12.00
2019-03-03T10:06:10.156Z,12.10
2019-03-03T10:08:57.112Z,12.10
2019-03-03T10:11:34.892Z,12.20
2019-03-03T10:14:11.489Z,12.30
2019-03-03T10:16:46.519Z,12.30
2019-03-03T10:19:30.538Z,12.50
2019-03-03T10:22:14.532Z,12.50
2019-03-03T10:24:52.437Z,12.60
2019-03-03T10:27:36.602Z,12.80
2019-03-03T10:30:32.851Z,12.90
2019-03-03T10:33:07.916Z,12.90
2019-03-03T10:35:51.715Z,13.00
2019-03-03T10:38:35.913Z,13.00
2019-03-03T10:41:09.158Z,13.10
2019-03-03T10:44:02.100Z,13.10
2019-03-03T10:46:37.253Z,13.20
2019-03-03T10:49:15.187Z,13.20
2019-03-03T10:52:05.239Z,13.10
2019-03-03T10:54:56.867Z,13.10
2019-03-03T10:57:37.853Z,13.10
2019-03-03T11:00:21.763Z,13.10
2019-03-03T11:03:02.825Z,13.10
2019-03-03T11:05:56.340Z,13.00
2019-03-03T11:08:49.693Z,13.10
2019-03-03T11:11:36.865Z,13.10
2019-03-03T11:14:28.135Z,13.20
2019-03-03T11:17:18.187Z,13.20
2019-03-03T11:20:02.151Z,13.30
2019-03-03T11:22:49.300Z,13.40
2019-03-03T11:25:33.472Z,13.40
2019-03-03T11:28:08.562Z,13.40
2019-03-03T11:30:43.767Z,13.30
2019-03-03T11:33:18.931Z,13.30
2019-03-03T11:35:59.806Z,13.30
2019-03-03T11:38:34.910Z,13.40
2019-03-03T11:41:16.060Z,13.50
2019-03-03T11:43:54.222Z,13.50
2019-03-03T11:46:45.400Z,13.50
2019-03-03T11:49:23.490Z,13.60
2019-03-03T11:52:13.445Z,13.60
2019-03-03T11:54:51.346Z,13.60
2019-03-03T11:57:29.137Z,13.50
2019-03-03T12:00:04.244Z,13.40
2019-03-03T12:02:57.569Z,13.30
2019-03-03T12:05:38.248Z,13.30
2019-03-03T12:08:22.393Z,13.10
2019-03-03T12:10:57.475Z,13.10
2019-03-03T12:13:44.726Z,13.00
2019-03-03T12:16:22.732Z,13.00
2019-03-03T12:19:08.194Z,13.00
2019-03-03T12:21:43.843Z,13.10
2019-03-03T12:24:21.776Z,13.10
2019-03-03T12:27:13.453Z,13.20
2019-03-03T12:29:50.965Z,13.30
2019-03-03T12:32:26.061Z,13.30
2019-03-03T12:35:01.136Z,13.40
2019-03-03T12:40:40.968Z,13.50
2019-03-03T12:43:16.101Z,13.50
2019-03-03T12:45:56.929Z,13.40
2019-03-03T12:48:38.004Z,13.40
2019-03-03T12:51:22.356Z,13.40
2019-03-03T12:54:09.559Z,13.40
2019-03-03T12:56:59.676Z,13.40
2019-03-03T12:59:46.938Z,13.30
2019-03-03T13:02:31.201Z,13.30
2019-03-03T13:05:06.832Z,13.30
2019-03-03T13:07:44.617Z,13.30
2019-03-03T13:10:19.708Z,13.30
2019-03-03T13:13:03.851Z,13.30
2019-03-03T13:15:53.920Z,13.30
2019-03-03T13:18:42.604Z,13.30
2019-03-03T13:21:20.823Z,13.20
2019-03-03T13:23:58.603Z,13.20
2019-03-03T13:26:39.425Z,13.20
2019-03-03T13:29:20.450Z,13.10
2019-03-03T13:32:00.068Z,13.10
2019-03-03T13:34:55.782Z,13.10
2019-03-03T13:37:30.897Z,13.00
2019-03-03T13:40:28.695Z,13.00
2019-03-03T13:43:01.817Z,13.00
2019-03-03T13:45:37.730Z,13.00
2019-03-03T13:48:13.868Z,13.00
2019-03-03T13:50:47.407Z,13.00
2019-03-03T13:53:20.871Z,12.90
2019-03-03T13:55:54.304Z,12.90
2019-03-03T13:58:27.763Z,12.90
2019-03-03T14:01:01.194Z,12.90
2019-03-03T14:03:34.671Z,12.90
2019-03-03T14:06:08.120Z,12.80
2019-03-03T14:08:42.365Z,12.80
2019-03-03T14:11:15.839Z,12.70
2019-03-03T14:13:49.286Z,12.70
2019-03-03T14:16:22.802Z,12.70
2019-03-03T14:18:56.225Z,12.60
2019-03-03T14:21:29.756Z,12.60
2019-03-03T14:24:03.179Z,12.50
2019-03-03T14:26:36.633Z,12.50
2019-03-03T14:29:10.093Z,12.50
2019-03-03T14:31:43.588Z,12.40
2019-03-03T14:34:17.048Z,12.40
2019-03-03T14:36:50.508Z,12.40
2019-03-03T14:39:23.986Z,12.40
2019-03-03T14:41:57.423Z,12.40
2019-03-03T14:44:30.885Z,12.40
2019-03-03T14:47:04.308Z,12.40
2019-03-03T14:49:37.782Z,12.40
2019-03-03T14:52:11.233Z,12.30
2019-03-03T14:54:44.688Z,12.30
2019-03-03T14:57:19.133Z,12.30
2019-03-03T14:59:52.592Z,12.20
2019-03-03T15:02:26.032Z,12.20
2019-03-03T15:04:59.488Z,12.10
2019-03-03T15:07:34.975Z,12.10
2019-03-03T15:10:11.109Z,12.10
2019-03-03T15:12:44.619Z,12.10
2019-03-03T15:15:23.805Z,12.00
2019-03-03T15:17:59.950Z,12.00
2019-03-03T15:21:05.930Z,12.00
2019-03-03T15:23:40.957Z,12.00
2019-03-03T15:26:15.912Z,12.00
2019-03-03T15:28:50.983Z,11.90
2019-03-03T15:31:26.187Z,11.90
2019-03-03T15:34:02.594Z,11.90
2019-03-03T15:36:37.540Z,11.90
2019-03-03T15:39:14.840Z,11.90
2019-03-03T15:41:49.753Z,11.80
2019-03-03T15:44:24.955Z,11.90
2019-03-03T15:46:59.924Z,11.80
2019-03-03T15:49:36.790Z,11.80
2019-03-03T15:52:13.191Z,11.80
2019-03-03T15:54:48.177Z,11.70
2019-03-03T15:57:23.205Z,11.70
2019-03-03T15:59:58.404Z,11.70
2019-03-03T16:02:33.293Z,11.60
2019-03-03T16:05:09.920Z,11.60
2019-03-03T16:07:46.792Z,11.60
2019-03-03T16:10:24.023Z,11.60
2019-03-03T16:12:58.885Z,11.60
2019-03-03T16:15:33.755Z,11.50
2019-03-03T16:18:08.675Z,11.50
2019-03-03T16:20:43.542Z,11.50
2019-03-03T16:23:18.455Z,11.50
2019-03-03T16:25:55.077Z,11.50
2019-03-03T16:28:29.939Z,11.40
2019-03-03T16:31:07.504Z,11.40
2019-03-03T16:33:45.624Z,11.40
2019-03-03T16:36:20.497Z,11.30
2019-03-03T16:38:56.887Z,11.30
2019-03-03T16:41:31.887Z,11.30
2019-03-03T16:44:06.751Z,11.30
2019-03-03T16:46:41.856Z,11.20
2019-03-03T16:49:17.413Z,11.20
2019-03-03T16:51:54.023Z,11.20
2019-03-03T16:54:30.477Z,11.10
2019-03-03T16:57:05.358Z,11.10
2019-03-03T16:59:40.213Z,11.10
2019-03-03T17:02:16.004Z,11.10
2019-03-03T17:04:52.051Z,11.10
2019-03-03T17:07:27.654Z,11.10
2019-03-03T17:10:02.604Z,11.10
2019-03-03T17:12:38.785Z,11.00
2019-03-03T17:15:19.423Z,11.00
2019-03-03T17:17:54.311Z,10.90
2019-03-03T17:20:29.171Z,10.80
2019-03-03T17:23:04.086Z,10.70
2019-03-03T17:25:38.918Z,10.70
2019-03-03T17:28:13.815Z,10.60
2019-03-03T17:30:48.665Z,10.60
2019-03-03T17:33:23.587Z,10.60
2019-03-03T17:35:58.494Z,10.50
2019-03-03T17:38:33.341Z,10.50
2019-03-03T17:41:09.190Z,10.50
2019-03-03T17:43:44.064Z,10.40
2019-03-03T17:46:19.043Z,10.40
2019-03-03T17:48:53.963Z,10.30
2019-03-03T17:51:29.044Z,10.20
2019-03-03T17:54:03.876Z,10.20
2019-03-03T17:56:38.789Z,10.10
2019-03-03T17:59:13.614Z,10.10
2019-03-03T18:01:49.624Z,10.00
2019-03-03T18:04:26.201Z,10.00
2019-03-03T18:07:01.141Z,10.00
2019-03-03T18:09:36.090Z,9.90
2019-03-03T18:12:11.180Z,9.90
2019-03-03T18:14:46.037Z,9.90
2019-03-03T18:17:20.977Z,9.90
2019-03-03T18:19:59.731Z,9.80
2019-03-03T18:22:43.825Z,9.80
2019-03-03T18:25:20.705Z,9.80
2019-03-03T18:27:55.530Z,9.70
2019-03-03T18:30:30.429Z,9.70
2019-03-03T18:33:05.296Z,9.70
2019-03-03T18:35:40.187Z,9.70
2019-03-03T18:38:15.032Z,9.70
2019-03-03T18:40:49.944Z,9.70
2019-03-03T18:43:24.802Z,9.70
2019-03-03T18:45:59.704Z,9.70
2019-03-03T18:48:35.584Z,9.70
2019-03-03T18:51:10.431Z,9.70
2019-03-03T18:53:46.046Z,9.70
2019-03-03T18:56:20.988Z,9.70
2019-03-03T18:58:55.885Z,9.70
2019-03-03T19:01:30.715Z,9.70
2019-03-03T19:04:05.622Z,9.60
2019-03-03T19:06:40.434Z,9.70
2019-03-03T19:09:16.977Z,9.70
2019-03-03T19:11:51.929Z,9.60
2019-03-03T19:14:28.550Z,9.60
2019-03-03T19:17:03.299Z,9.60
2019-03-03T19:19:38.152Z,9.60
2019-03-03T19:22:13.016Z,9.60
2019-03-03T19:24:47.878Z,9.60
2019-03-03T19:27:22.730Z,9.60
2019-03-03T19:29:57.592Z,9.60
2019-03-03T19:32:32.451Z,9.60
2019-03-03T19:35:09.549Z,9.60
2019-03-03T19:37:44.411Z,9.60
2019-03-03T19:40:19.294Z,9.60
2019-03-03T19:42:54.125Z,9.60
2019-03-03T19:45:40.940Z,9.70
2019-03-03T19:48:16.699Z,9.60
2019-03-03T19:50:51.857Z,9.60
2019-03-03T19:53:26.703Z,9.60
2019-03-03T19:56:01.836Z,9.70
2019-03-03T19:58:36.763Z,9.70
2019-03-03T20:01:11.826Z,9.70
2019-03-03T20:03:46.729Z,9.70
2019-03-03T20:06:21.775Z,9.70
2019-03-03T20:08:56.749Z,9.70
2019-03-03T20:11:31.919Z,9.70
2019-03-03T20:14:08.506Z,9.70
2019-03-03T20:16:43.423Z,9.70
2019-03-03T20:19:18.381Z,9.80
2019-03-03T20:21:53.466Z,9.80
2019-03-03T20:24:28.568Z,9.80
2019-03-03T20:27:03.486Z,9.80
2019-03-03T20:29:38.619Z,9.90
2019-03-03T20:32:13.530Z,9.90
2019-03-03T20:34:48.520Z,9.90
2019-03-03T20:37:23.488Z,10.00
2019-03-03T20:39:58.498Z,10.00
2019-03-03T20:42:34.746Z,10.00
2019-03-03T20:45:21.580Z,10.00
2019-03-03T20:47:56.658Z,10.00
2019-03-03T20:50:32.252Z,10.10
2019-03-03T20:53:07.449Z,10.00
2019-03-03T20:55:42.463Z,10.10
2019-03-03T20:58:17.437Z,10.10
2019-03-03T21:00:52.336Z,10.10
2019-03-03T21:03:27.387Z,10.00
2019-03-03T21:06:02.468Z,10.00
2019-03-03T21:08:37.525Z,10.00
2019-03-03T21:11:12.444Z,10.00
2019-03-03T21:13:47.453Z,10.00
2019-03-03T21:16:22.620Z,10.00
2019-03-03T21:18:57.734Z,10.00
2019-03-03T21:21:32.549Z,10.00
2019-03-03T21:24:10.457Z,10.00
2019-03-03T21:26:45.482Z,10.00
2019-03-03T21:29:20.528Z,9.90
2019-03-03T21:31:56.990Z,9.90
2019-03-03T21:34:31.991Z,9.80
2019-03-03T21:37:07.359Z,9.80
2019-03-03T21:39:42.277Z,9.80
2019-03-03T21:42:17.091Z,9.80
2019-03-03T21:44:51.997Z,9.80
2019-03-03T21:47:26.983Z,9.80
2019-03-03T21:50:01.888Z,9.70
2019-03-03T21:52:37.471Z,9.70
2019-03-03T21:55:13.828Z,9.70
2019-03-03T21:57:48.984Z,9.70
2019-03-03T22:00:42.816Z,9.70
2019-03-03T22:03:17.719Z,9.70
2019-03-03T22:05:56.158Z,9.70
2019-03-03T22:08:30.948Z,9.70
2019-03-03T22:11:07.229Z,9.70
2019-03-03T22:13:42.246Z,9.70
2019-03-03T22:16:17.295Z,9.60
2019-03-03T22:18:52.488Z,9.60
2019-03-03T22:21:29.585Z,9.60
2019-03-03T22:24:04.630Z,9.60
2019-03-03T22:26:39.775Z,9.50
2019-03-03T22:29:17.190Z,9.60
2019-03-03T22:31:53.039Z,9.60
2019-03-03T22:34:28.469Z,9.50
2019-03-03T22:37:03.701Z,9.50
2019-03-03T22:39:38.609Z,9.50
2019-03-03T22:42:15.174Z,9.50
2019-03-03T22:44:50.103Z,9.50
2019-03-03T22:47:24.928Z,9.50
2019-03-03T22:50:01.638Z,9.40
2019-03-03T22:52:36.519Z,9.40
2019-03-03T22:55:13.043Z,9.40
2019-03-03T22:57:47.894Z,9.30
2019-03-03T23:00:43.316Z,9.30
2019-03-03T23:03:24.425Z,9.30
2019-03-03T23:06:11.294Z,9.30
2019-03-03T23:08:55.439Z,9.30
2019-03-03T23:11:51.725Z,9.30
2019-03-03T23:14:52.564Z,9.30
2019-03-03T23:17:48.823Z,9.30
2019-03-03T23:20:29.788Z,9.20
2019-03-03T23:23:23.171Z,9.20
2019-03-03T23:25:58.025Z,9.20
2019-03-03T23:28:35.917Z,9.20
2019-03-03T23:31:10.796Z,9.10
2019-03-03T23:33:45.681Z,9.10
2019-03-03T23:36:20.569Z,9.10
2019-03-03T23:38:55.441Z,9.10
2019-03-03T23:41:30.332Z,9.00
2019-03-03T23:44:05.160Z,9.00
2019-03-03T23:46:40.061Z,9.00
2019-03-03T23:49:15.033Z,9.00
2019-03-03T23:51:51.251Z,9.00
2019-03-03T23:54:26.255Z,9.00
2019-03-03T23:57:01.063Z,9.00
2019-03-03T23:59:35.976Z,9.00
